Kailua, HI

9:09 PM HST on September 18, 2014 (GMT -1000)
Kaneohe Bay Marine Corps Air Facility | Change Station
CLOSE
Current Station
Airport
Location: Kaneohe MCBH,
Elevation: 23 ft
Nearby Weather Stations

Elev 23 ft 21.45 °N, 157.76 °W | Updated 12 minutes ago

Clear
Clear
81 °F
Feels Like 85 °F
N
0
Wind Variable Wind from North

Today
High -- | Low -- °F
--% Chance of Precip.
Yesterday
High -- | Low -- °F
Precip. -- in
6:18 AM 6:30 PM
Waning Crescent, 21% visible
Pressure 29.95 in
Visibility 10.0 miles
Clouds Clear
Heat Index 85 °F
Dew Point 72 °F
Humidity 75%
Rainfall 0.00 in
Snow Depth Not available.
UV 0 out of 12
Pollen Not available.
Air Quality Not available.
Flu Activity Not available.
METAR PHNG 190657Z 00000KT 10SM CLR 27/22 A2996 RMK AO2 SLP141 T02700222 $

More Conditions Fewer Conditions

Pressure 29.95 in
Visibility 10.0 miles
Clouds Clear
Heat Index 85 °F
Dew Point 72 °F
Humidity 75%
Rainfall 0.00 in
Snow Depth Not available.
UV 0 out of 12
Pollen Not available.
Air Quality Not available.
Flu Activity Not available.
METAR PHNG 190657Z 00000KT 10SM CLR 27/22 A2996 RMK AO2 SLP141 T02700222 $

More Conditions Fewer Conditions

10-Day Weather Forecast

Almanac

Astronomy

Sep. 18, 2014 Rise Set
Actual Time 6:18 AM HST 6:30 PM HST
Civil Twilight 5:56 AM HST 6:53 PM HST
Nautical Twilight 5:30 AM HST 7:18 PM HST
Astronomical Twilight 5:04 AM HST 7:44 PM HST
Moon 1:48 AM HST (9/18) 3:03 PM HST (9/18)
Length of Visible Light 12h 56m
Length of Day
12h 12m
Tomorrow will be 1m 13s shorter.
Waning Crescent, 21% of the Moon is Illuminated
Sep 19
Waning Crescent
Sep 24
New
Oct 1
First Quarter
Oct 8
Full
Oct 15
Last Quarter

Yesterday's Extremes

State Highs State Lows

Community

WunderPhotos

Upload Photos

1,754,575 photos uploaded!

Nearby

Snow Depth

Station Depth Elevation
No new snow has been reported.

Earthquake Activity

City Distance Mag. Time & Date
No recent earthquake activity has been reported nearby.
Minimum magnitude displayed is 2.5.

Coastal Water Temperatures

Place Temperature
No Stations Reporting

Nearby Weather Stations